sensor_id;sensor_type;location;lat;lon;timestamp;pressure;altitude;pressure_sealevel;temperature;humidity
26436;BME280;15351;52.408;16.826;2023-01-24T00:02:22;103196.65;;;4.35;76.63
26436;BME280;15351;52.408;16.826;2023-01-24T00:04:49;103196.61;;;4.36;76.73
26436;BME280;15351;52.408;16.826;2023-01-24T00:07:15;103201.08;;;4.35;76.75
26436;BME280;15351;52.408;16.826;2023-01-24T00:09:42;103203.92;;;4.35;76.63
26436;BME280;15351;52.408;16.826;2023-01-24T00:12:08;103206.66;;;4.38;76.64
26436;BME280;15351;52.408;16.826;2023-01-24T00:14:34;103206.66;;;4.38;76.58
26436;BME280;15351;52.408;16.826;2023-01-24T00:17:00;103208.45;;;4.38;76.64
26436;BME280;15351;52.408;16.826;2023-01-24T00:19:26;103205.02;;;4.35;76.64
26436;BME280;15351;52.408;16.826;2023-01-24T00:21:53;103210.52;;;4.35;76.58
26436;BME280;15351;52.408;16.826;2023-01-24T00:24:20;103209.50;;;4.34;76.48
26436;BME280;15351;52.408;16.826;2023-01-24T00:26:46;103207.02;;;4.34;76.51
26436;BME280;15351;52.408;16.826;2023-01-24T00:29:13;103208.77;;;4.31;76.63
26436;BME280;15351;52.408;16.826;2023-01-24T00:31:41;103206.17;;;4.29;76.75
26436;BME280;15351;52.408;16.826;2023-01-24T00:34:07;103210.11;;;4.29;76.69
26436;BME280;15351;52.408;16.826;2023-01-24T00:36:37;103209.66;;;4.31;76.59
26436;BME280;15351;52.408;16.826;2023-01-24T00:39:04;103204.58;;;4.29;76.70
26436;BME280;15351;52.408;16.826;2023-01-24T00:41:31;103203.77;;;4.28;76.75
26436;BME280;15351;52.408;16.826;2023-01-24T00:43:57;103207.41;;;4.30;76.91
26436;BME280;15351;52.408;16.826;2023-01-24T00:46:24;103213.09;;;4.34;76.75
26436;BME280;15351;52.408;16.826;2023-01-24T00:48:50;103216.25;;;4.35;76.60
26436;BME280;15351;52.408;16.826;2023-01-24T00:51:17;103213.42;;;4.34;76.64
26436;BME280;15351;52.408;16.826;2023-01-24T00:53:43;103214.66;;;4.34;76.61
26436;BME280;15351;52.408;16.826;2023-01-24T00:56:10;103215.04;;;4.34;76.92
26436;BME280;15351;52.408;16.826;2023-01-24T00:58:37;103216.91;;;4.36;76.70
26436;BME280;15351;52.408;16.826;2023-01-24T01:01:06;103212.82;;;4.36;76.55
26436;BME280;15351;52.408;16.826;2023-01-24T01:03:33;103216.55;;;4.36;76.54
26436;BME280;15351;52.408;16.826;2023-01-24T01:06:03;103218.02;;;4.35;76.63
26436;BME280;15351;52.408;16.826;2023-01-24T01:08:31;103219.39;;;4.36;76.64
26436;BME280;15351;52.408;16.826;2023-01-24T01:10:58;103213.17;;;4.36;76.59
26436;BME280;15351;52.408;16.826;2023-01-24T01:13:25;103212.17;;;4.34;76.59
26436;BME280;15351;52.408;16.826;2023-01-24T01:16:00;103212.96;;;4.32;76.50
26436;BME280;15351;52.408;16.826;2023-01-24T01:18:26;103213.69;;;4.32;76.68
26436;BME280;15351;52.408;16.826;2023-01-24T01:20:53;103212.80;;;4.36;76.68
26436;BME280;15351;52.408;16.826;2023-01-24T01:23:19;103208.20;;;4.40;76.77
26436;BME280;15351;52.408;16.826;2023-01-24T01:25:46;103215.48;;;4.40;76.45
26436;BME280;15351;52.408;16.826;2023-01-24T01:28:14;103217.10;;;4.40;76.45
26436;BME280;15351;52.408;16.826;2023-01-24T01:30:41;103215.91;;;4.38;76.60
26436;BME280;15351;52.408;16.826;2023-01-24T01:33:08;103213.70;;;4.40;76.64
26436;BME280;15351;52.408;16.826;2023-01-24T01:35:35;103212.33;;;4.42;76.52
26436;BME280;15351;52.408;16.826;2023-01-24T01:38:01;103206.67;;;4.45;76.37
26436;BME280;15351;52.408;16.826;2023-01-24T01:40:28;103204.64;;;4.47;76.17
26436;BME280;15351;52.408;16.826;2023-01-24T01:42:55;103206.77;;;4.47;76.21
26436;BME280;15351;52.408;16.826;2023-01-24T01:45:47;103213.38;;;4.46;76.32
26436;BME280;15351;52.408;16.826;2023-01-24T01:48:21;103213.64;;;4.45;76.33
26436;BME280;15351;52.408;16.826;2023-01-24T01:53:23;103214.14;;;4.42;76.05
26436;BME280;15351;52.408;16.826;2023-01-24T01:55:57;103212.88;;;4.42;76.28
26436;BME280;15351;52.408;16.826;2023-01-24T01:58:26;103208.59;;;4.39;76.24
26436;BME280;15351;52.408;16.826;2023-01-24T02:00:53;103204.52;;;4.41;76.37
26436;BME280;15351;52.408;16.826;2023-01-24T02:03:29;103206.33;;;4.41;76.20
26436;BME280;15351;52.408;16.826;2023-01-24T02:06:13;103202.80;;;4.40;76.01
26436;BME280;15351;52.408;16.826;2023-01-24T02:08:43;103199.38;;;4.41;76.18
26436;BME280;15351;52.408;16.826;2023-01-24T02:11:11;103201.89;;;4.41;76.24
26436;BME280;15351;52.408;16.826;2023-01-24T02:13:57;103204.34;;;4.42;76.27
26436;BME280;15351;52.408;16.826;2023-01-24T02:16:45;103201.61;;;4.43;76.04
26436;BME280;15351;52.408;16.826;2023-01-24T02:19:26;103198.80;;;4.42;76.15
26436;BME280;15351;52.408;16.826;2023-01-24T02:22:17;103202.55;;;4.42;76.10
26436;BME280;15351;52.408;16.826;2023-01-24T02:24:57;103207.98;;;4.44;76.30
26436;BME280;15351;52.408;16.826;2023-01-24T02:27:26;103206.10;;;4.46;76.21
26436;BME280;15351;52.408;16.826;2023-01-24T02:29:55;103204.26;;;4.47;75.87
26436;BME280;15351;52.408;16.826;2023-01-24T02:32:22;103204.70;;;4.45;76.12
26436;BME280;15351;52.408;16.826;2023-01-24T02:34:49;103210.94;;;4.42;76.06
26436;BME280;15351;52.408;16.826;2023-01-24T02:37:17;103208.92;;;4.43;76.05
26436;BME280;15351;52.408;16.826;2023-01-24T02:39:58;103205.69;;;4.43;75.92
26436;BME280;15351;52.408;16.826;2023-01-24T02:42:30;103204.13;;;4.43;76.02
26436;BME280;15351;52.408;16.826;2023-01-24T02:45:08;103199.41;;;4.41;75.87
26436;BME280;15351;52.408;16.826;2023-01-24T02:47:47;103197.75;;;4.38;76.04
26436;BME280;15351;52.408;16.826;2023-01-24T02:50:14;103195.54;;;4.36;76.02
26436;BME280;15351;52.408;16.826;2023-01-24T02:52:42;103198.56;;;4.36;75.87
26436;BME280;15351;52.408;16.826;2023-01-24T02:55:27;103199.90;;;4.30;75.82
26436;BME280;15351;52.408;16.826;2023-01-24T02:57:55;103205.45;;;4.29;76.04
26436;BME280;15351;52.408;16.826;2023-01-24T03:00:40;103206.59;;;4.32;76.36
26436;BME280;15351;52.408;16.826;2023-01-24T03:03:09;103208.08;;;4.34;76.24
26436;BME280;15351;52.408;16.826;2023-01-24T03:05:36;103211.68;;;4.37;76.15
26436;BME280;15351;52.408;16.826;2023-01-24T03:08:14;103214.73;;;4.41;75.93
26436;BME280;15351;52.408;16.826;2023-01-24T03:10:43;103215.73;;;4.39;76.07
26436;BME280;15351;52.408;16.826;2023-01-24T03:13:13;103214.61;;;4.40;76.11
26436;BME280;15351;52.408;16.826;2023-01-24T03:16:02;103220.58;;;4.41;76.12
26436;BME280;15351;52.408;16.826;2023-01-24T03:18:48;103217.56;;;4.41;75.88
26436;BME280;15351;52.408;16.826;2023-01-24T03:21:36;103223.47;;;4.40;75.89
26436;BME280;15351;52.408;16.826;2023-01-24T03:24:21;103228.77;;;4.38;75.85
26436;BME280;15351;52.408;16.826;2023-01-24T03:27:07;103227.70;;;4.37;76.07
26436;BME280;15351;52.408;16.826;2023-01-24T03:29:53;103229.27;;;4.42;75.89
26436;BME280;15351;52.408;16.826;2023-01-24T03:32:42;103234.15;;;4.41;75.63
26436;BME280;15351;52.408;16.826;2023-01-24T03:35:32;103230.69;;;4.34;75.83
26436;BME280;15351;52.408;16.826;2023-01-24T03:37:59;103228.48;;;4.36;76.07
26436;BME280;15351;52.408;16.826;2023-01-24T03:40:46;103230.81;;;4.40;76.01
26436;BME280;15351;52.408;16.826;2023-01-24T03:43:14;103225.90;;;4.42;75.78
26436;BME280;15351;52.408;16.826;2023-01-24T03:45:40;103225.11;;;4.40;75.75
26436;BME280;15351;52.408;16.826;2023-01-24T03:48:13;103226.46;;;4.37;75.83
26436;BME280;15351;52.408;16.826;2023-01-24T03:50:42;103219.96;;;4.35;75.98
26436;BME280;15351;52.408;16.826;2023-01-24T03:53:30;103219.90;;;4.37;76.01
26436;BME280;15351;52.408;16.826;2023-01-24T03:56:01;103224.41;;;4.40;75.76
26436;BME280;15351;52.408;16.826;2023-01-24T03:58:32;103226.41;;;4.39;75.71
26436;BME280;15351;52.408;16.826;2023-01-24T04:01:01;103226.10;;;4.37;75.89
26436;BME280;15351;52.408;16.826;2023-01-24T04:03:50;103221.81;;;4.38;75.91
26436;BME280;15351;52.408;16.826;2023-01-24T04:06:17;103221.21;;;4.39;75.75
26436;BME280;15351;52.408;16.826;2023-01-24T04:08:45;103223.16;;;4.40;75.65
26436;BME280;15351;52.408;16.826;2023-01-24T04:11:12;103220.40;;;4.38;75.67
26436;BME280;15351;52.408;16.826;2023-01-24T04:13:38;103218.64;;;4.41;75.87
26436;BME280;15351;52.408;16.826;2023-01-24T04:16:06;103215.04;;;4.42;75.93
26436;BME280;15351;52.408;16.826;2023-01-24T04:18:46;103217.10;;;4.43;75.83
26436;BME280;15351;52.408;16.826;2023-01-24T04:21:13;103216.38;;;4.43;75.55
26436;BME280;15351;52.408;16.826;2023-01-24T04:23:39;103212.09;;;4.40;75.51
26436;BME280;15351;52.408;16.826;2023-01-24T04:26:06;103210.82;;;4.41;75.79
26436;BME280;15351;52.408;16.826;2023-01-24T04:28:33;103209.83;;;4.43;75.73
26436;BME280;15351;52.408;16.826;2023-01-24T04:31:02;103210.20;;;4.42;75.55
26436;BME280;15351;52.408;16.826;2023-01-24T04:33:55;103209.87;;;4.42;75.51
26436;BME280;15351;52.408;16.826;2023-01-24T04:36:22;103204.89;;;4.41;75.47
26436;BME280;15351;52.408;16.826;2023-01-24T04:38:49;103202.02;;;4.38;75.48
26436;BME280;15351;52.408;16.826;2023-01-24T04:41:29;103200.21;;;4.35;75.57
26436;BME280;15351;52.408;16.826;2023-01-24T04:43:56;103193.71;;;4.37;75.62
26436;BME280;15351;52.408;16.826;2023-01-24T04:46:22;103187.40;;;4.39;75.34
26436;BME280;15351;52.408;16.826;2023-01-24T04:48:53;103189.63;;;4.33;75.22
26436;BME280;15351;52.408;16.826;2023-01-24T04:51:20;103189.15;;;4.28;75.52
26436;BME280;15351;52.408;16.826;2023-01-24T04:53:47;103194.94;;;4.26;75.55
26436;BME280;15351;52.408;16.826;2023-01-24T04:56:16;103197.83;;;4.25;75.52
26436;BME280;15351;52.408;16.826;2023-01-24T04:58:43;103194.00;;;4.27;75.49
26436;BME280;15351;52.408;16.826;2023-01-24T05:01:10;103194.05;;;4.26;75.53
26436;BME280;15351;52.408;16.826;2023-01-24T05:03:43;103194.21;;;4.22;75.58
26436;BME280;15351;52.408;16.826;2023-01-24T05:06:10;103197.21;;;4.19;75.78
26436;BME280;15351;52.408;16.826;2023-01-24T05:08:40;103193.31;;;4.19;75.91
26436;BME280;15351;52.408;16.826;2023-01-24T05:11:06;103197.98;;;4.18;75.87
26436;BME280;15351;52.408;16.826;2023-01-24T05:13:35;103203.80;;;4.16;75.96
26436;BME280;15351;52.408;16.826;2023-01-24T05:16:03;103207.70;;;4.12;76.09
26436;BME280;15351;52.408;16.826;2023-01-24T05:18:30;103211.83;;;4.08;76.11
26436;BME280;15351;52.408;16.826;2023-01-24T05:21:04;103214.81;;;4.09;76.33
26436;BME280;15351;52.408;16.826;2023-01-24T05:23:31;103214.36;;;4.10;76.14
26436;BME280;15351;52.408;16.826;2023-01-24T05:25:59;103216.03;;;4.13;76.14
26436;BME280;15351;52.408;16.826;2023-01-24T05:28:28;103219.79;;;4.13;76.29
26436;BME280;15351;52.408;16.826;2023-01-24T05:30:59;103226.78;;;4.12;76.38
26436;BME280;15351;52.408;16.826;2023-01-24T05:33:27;103226.56;;;4.09;76.41
26436;BME280;15351;52.408;16.826;2023-01-24T05:36:01;103232.63;;;4.09;76.50
26436;BME280;15351;52.408;16.826;2023-01-24T05:38:31;103231.71;;;4.09;76.53
26436;BME280;15351;52.408;16.826;2023-01-24T05:41:05;103232.34;;;4.11;76.71
26436;BME280;15351;52.408;16.826;2023-01-24T05:43:33;103235.39;;;4.14;76.75
26436;BME280;15351;52.408;16.826;2023-01-24T05:46:05;103233.27;;;4.17;76.58
26436;BME280;15351;52.408;16.826;2023-01-24T05:48:36;103236.14;;;4.20;76.53
26436;BME280;15351;52.408;16.826;2023-01-24T05:51:06;103235.15;;;4.23;76.49
26436;BME280;15351;52.408;16.826;2023-01-24T05:53:36;103234.75;;;4.24;76.60
26436;BME280;15351;52.408;16.826;2023-01-24T05:56:06;103238.17;;;4.23;76.53
26436;BME280;15351;52.408;16.826;2023-01-24T05:58:36;103243.58;;;4.21;76.44
26436;BME280;15351;52.408;16.826;2023-01-24T06:01:13;103243.33;;;4.19;76.40
26436;BME280;15351;52.408;16.826;2023-01-24T06:03:48;103242.20;;;4.20;76.54
26436;BME280;15351;52.408;16.826;2023-01-24T06:06:19;103240.89;;;4.21;76.44
26436;BME280;15351;52.408;16.826;2023-01-24T06:08:46;103241.25;;;4.22;76.38
26436;BME280;15351;52.408;16.826;2023-01-24T06:11:20;103239.98;;;4.19;76.23
26436;BME280;15351;52.408;16.826;2023-01-24T06:13:47;103240.28;;;4.16;76.22
26436;BME280;15351;52.408;16.826;2023-01-24T06:16:18;103240.43;;;4.13;76.27
26436;BME280;15351;52.408;16.826;2023-01-24T06:18:47;103240.88;;;4.11;76.39
26436;BME280;15351;52.408;16.826;2023-01-24T06:21:48;103241.56;;;4.11;76.51
26436;BME280;15351;52.408;16.826;2023-01-24T06:24:22;103245.98;;;4.12;76.29
26436;BME280;15351;52.408;16.826;2023-01-24T06:27:16;103247.34;;;4.10;76.22
26436;BME280;15351;52.408;16.826;2023-01-24T06:29:44;103245.55;;;4.10;76.30
26436;BME280;15351;52.408;16.826;2023-01-24T06:35:06;103254.32;;;4.13;76.44
26436;BME280;15351;52.408;16.826;2023-01-24T06:40:29;103269.41;;;4.10;76.33
26436;BME280;15351;52.408;16.826;2023-01-24T06:42:58;103272.65;;;4.13;76.49
26436;BME280;15351;52.408;16.826;2023-01-24T06:45:24;103269.04;;;4.18;76.41
26436;BME280;15351;52.408;16.826;2023-01-24T06:47:50;103267.67;;;4.20;76.24
26436;BME280;15351;52.408;16.826;2023-01-24T06:50:19;103268.75;;;4.20;76.05
26436;BME280;15351;52.408;16.826;2023-01-24T06:52:49;103273.67;;;4.18;76.28
26436;BME280;15351;52.408;16.826;2023-01-24T06:55:18;103278.52;;;4.13;76.34
26436;BME280;15351;52.408;16.826;2023-01-24T06:57:44;103280.26;;;4.14;76.63
26436;BME280;15351;52.408;16.826;2023-01-24T07:00:13;103284.12;;;4.15;76.50
26436;BME280;15351;52.408;16.826;2023-01-24T07:02:40;103280.26;;;4.18;76.46
26436;BME280;15351;52.408;16.826;2023-01-24T07:05:07;103278.87;;;4.17;76.25
26436;BME280;15351;52.408;16.826;2023-01-24T07:07:34;103281.61;;;4.16;76.47
26436;BME280;15351;52.408;16.826;2023-01-24T07:10:00;103283.48;;;4.17;76.42
26436;BME280;15351;52.408;16.826;2023-01-24T07:12:27;103280.99;;;4.21;76.36
26436;BME280;15351;52.408;16.826;2023-01-24T07:14:54;103279.98;;;4.24;76.19
26436;BME280;15351;52.408;16.826;2023-01-24T07:17:21;103284.98;;;4.23;76.15
26436;BME280;15351;52.408;16.826;2023-01-24T07:19:48;103282.97;;;4.25;76.22
26436;BME280;15351;52.408;16.826;2023-01-24T07:22:16;103282.14;;;4.28;76.07
26436;BME280;15351;52.408;16.826;2023-01-24T07:24:42;103293.36;;;4.27;75.86
26436;BME280;15351;52.408;16.826;2023-01-24T07:27:11;103299.56;;;4.24;75.72
26436;BME280;15351;52.408;16.826;2023-01-24T07:29:39;103299.93;;;4.24;75.83
26436;BME280;15351;52.408;16.826;2023-01-24T07:32:05;103300.80;;;4.24;75.88
26436;BME280;15351;52.408;16.826;2023-01-24T07:34:33;103304.85;;;4.29;76.01
26436;BME280;15351;52.408;16.826;2023-01-24T07:37:00;103306.81;;;4.33;75.55
26436;BME280;15351;52.408;16.826;2023-01-24T07:39:28;103312.65;;;4.34;75.55
26436;BME280;15351;52.408;16.826;2023-01-24T07:41:58;103318.67;;;4.35;75.59
26436;BME280;15351;52.408;16.826;2023-01-24T07:44:26;103315.54;;;4.33;75.66
26436;BME280;15351;52.408;16.826;2023-01-24T07:46:53;103311.05;;;4.34;75.69
26436;BME280;15351;52.408;16.826;2023-01-24T07:49:21;103313.11;;;4.35;75.46
26436;BME280;15351;52.408;16.826;2023-01-24T07:51:47;103312.16;;;4.37;75.28
26436;BME280;15351;52.408;16.826;2023-01-24T07:54:15;103309.01;;;4.36;75.23
26436;BME280;15351;52.408;16.826;2023-01-24T07:56:44;103310.93;;;4.29;75.08
26436;BME280;15351;52.408;16.826;2023-01-24T07:59:10;103311.09;;;4.25;75.40
26436;BME280;15351;52.408;16.826;2023-01-24T08:01:38;103312.20;;;4.28;75.33
26436;BME280;15351;52.408;16.826;2023-01-24T08:04:04;103310.14;;;4.34;75.06
26436;BME280;15351;52.408;16.826;2023-01-24T08:06:30;103310.86;;;4.34;75.07
26436;BME280;15351;52.408;16.826;2023-01-24T08:08:57;103309.17;;;4.32;75.11
26436;BME280;15351;52.408;16.826;2023-01-24T08:11:23;103311.07;;;4.33;75.23
26436;BME280;15351;52.408;16.826;2023-01-24T08:13:51;103311.58;;;4.34;75.08
26436;BME280;15351;52.408;16.826;2023-01-24T08:16:17;103309.98;;;4.34;74.84
26436;BME280;15351;52.408;16.826;2023-01-24T08:18:44;103309.40;;;4.35;74.91
26436;BME280;15351;52.408;16.826;2023-01-24T08:21:11;103305.17;;;4.30;74.99
26436;BME280;15351;52.408;16.826;2023-01-24T08:23:37;103310.40;;;4.29;75.22
26436;BME280;15351;52.408;16.826;2023-01-24T08:26:05;103308.86;;;4.31;75.14
26436;BME280;15351;52.408;16.826;2023-01-24T08:28:34;103303.63;;;4.36;75.05
26436;BME280;15351;52.408;16.826;2023-01-24T08:31:04;103299.50;;;4.37;75.00
26436;BME280;15351;52.408;16.826;2023-01-24T08:33:31;103308.71;;;4.39;75.16
26436;BME280;15351;52.408;16.826;2023-01-24T08:36:06;103308.64;;;4.40;75.30
26436;BME280;15351;52.408;16.826;2023-01-24T08:38:35;103308.42;;;4.45;75.25
26436;BME280;15351;52.408;16.826;2023-01-24T08:41:05;103306.47;;;4.48;75.00
26436;BME280;15351;52.408;16.826;2023-01-24T08:43:33;103308.98;;;4.48;74.91
26436;BME280;15351;52.408;16.826;2023-01-24T08:45:59;103309.73;;;4.47;74.94
26436;BME280;15351;52.408;16.826;2023-01-24T08:48:28;103306.56;;;4.50;75.17
26436;BME280;15351;52.408;16.826;2023-01-24T08:50:55;103308.95;;;4.57;75.09
26436;BME280;15351;52.408;16.826;2023-01-24T08:53:25;103305.50;;;4.58;74.72
26436;BME280;15351;52.408;16.826;2023-01-24T08:55:52;103303.67;;;4.59;74.57
26436;BME280;15351;52.408;16.826;2023-01-24T08:58:19;103308.25;;;4.60;74.55
26436;BME280;15351;52.408;16.826;2023-01-24T09:00:49;103305.68;;;4.58;74.62
26436;BME280;15351;52.408;16.826;2023-01-24T09:03:17;103307.50;;;4.57;74.67
26436;BME280;15351;52.408;16.826;2023-01-24T09:05:44;103311.91;;;4.58;74.79
26436;BME280;15351;52.408;16.826;2023-01-24T09:08:11;103313.39;;;4.61;74.73
26436;BME280;15351;52.408;16.826;2023-01-24T09:10:38;103312.98;;;4.62;74.66
26436;BME280;15351;52.408;16.826;2023-01-24T09:13:04;103309.60;;;4.65;74.82
26436;BME280;15351;52.408;16.826;2023-01-24T09:15:31;103316.67;;;4.70;74.89
26436;BME280;15351;52.408;16.826;2023-01-24T09:18:02;103315.16;;;4.76;74.78
26436;BME280;15351;52.408;16.826;2023-01-24T09:20:28;103314.83;;;4.79;74.66
26436;BME280;15351;52.408;16.826;2023-01-24T09:22:56;103317.44;;;4.80;74.69
26436;BME280;15351;52.408;16.826;2023-01-24T09:25:23;103319.34;;;4.86;74.75
26436;BME280;15351;52.408;16.826;2023-01-24T09:27:53;103322.51;;;4.90;74.70
26436;BME280;15351;52.408;16.826;2023-01-24T09:30:21;103322.08;;;4.95;74.50
26436;BME280;15351;52.408;16.826;2023-01-24T09:32:50;103327.71;;;5.01;74.42
26436;BME280;15351;52.408;16.826;2023-01-24T09:35:19;103327.34;;;5.05;74.14
26436;BME280;15351;52.408;16.826;2023-01-24T09:37:51;103330.56;;;5.05;74.23
26436;BME280;15351;52.408;16.826;2023-01-24T09:40:22;103337.83;;;5.06;74.32
26436;BME280;15351;52.408;16.826;2023-01-24T09:43:04;103339.30;;;5.08;74.20
26436;BME280;15351;52.408;16.826;2023-01-24T09:45:45;103341.71;;;5.13;74.10
26436;BME280;15351;52.408;16.826;2023-01-24T09:48:36;103346.59;;;5.12;73.90
26436;BME280;15351;52.408;16.826;2023-01-24T09:51:13;103351.55;;;5.09;73.97
26436;BME280;15351;52.408;16.826;2023-01-24T09:53:44;103343.19;;;5.08;73.97
26436;BME280;15351;52.408;16.826;2023-01-24T09:56:27;103345.79;;;5.10;73.77
26436;BME280;15351;52.408;16.826;2023-01-24T09:59:09;103346.42;;;5.12;73.58
26436;BME280;15351;52.408;16.826;2023-01-24T10:01:38;103346.67;;;5.07;73.56
26436;BME280;15351;52.408;16.826;2023-01-24T10:04:33;103347.27;;;5.06;74.05
26436;BME280;15351;52.408;16.826;2023-01-24T10:07:24;103345.05;;;5.10;73.94
26436;BME280;15351;52.408;16.826;2023-01-24T10:10:56;103344.89;;;5.14;73.85
26436;BME280;15351;52.408;16.826;2023-01-24T10:25:31;103337.27;;;5.35;73.36
26436;BME280;15351;52.408;16.826;2023-01-24T10:28:00;103337.27;;;5.39;73.51
26436;BME280;15351;52.408;16.826;2023-01-24T10:30:55;103333.50;;;5.43;73.54
26436;BME280;15351;52.408;16.826;2023-01-24T10:33:19;103330.71;;;5.45;73.40
26436;BME280;15351;52.408;16.826;2023-01-24T10:36:04;103324.64;;;5.45;73.22
26436;BME280;15351;52.408;16.826;2023-01-24T10:38:32;103318.56;;;5.45;73.25
26436;BME280;15351;52.408;16.826;2023-01-24T10:41:21;103316.67;;;5.47;73.28
26436;BME280;15351;52.408;16.826;2023-01-24T10:49:29;103308.41;;;5.55;72.95
26436;BME280;15351;52.408;16.826;2023-01-24T10:52:19;103304.55;;;5.61;73.08
26436;BME280;15351;52.408;16.826;2023-01-24T10:54:57;103300.48;;;5.64;73.08
26436;BME280;15351;52.408;16.826;2023-01-24T10:57:30;103303.63;;;5.66;72.97
26436;BME280;15351;52.408;16.826;2023-01-24T11:00:04;103303.38;;;5.63;72.75
26436;BME280;15351;52.408;16.826;2023-01-24T11:02:32;103310.58;;;5.62;72.65
26436;BME280;15351;52.408;16.826;2023-01-24T11:05:04;103305.35;;;5.63;72.68
26436;BME280;15351;52.408;16.826;2023-01-24T11:07:35;103302.10;;;5.64;72.92
26436;BME280;15351;52.408;16.826;2023-01-24T11:10:36;103298.55;;;5.67;72.79
26436;BME280;15351;52.408;16.826;2023-01-24T11:15:47;103299.73;;;5.73;72.33
26436;BME280;15351;52.408;16.826;2023-01-24T11:18:21;103293.84;;;5.76;72.52
26436;BME280;15351;52.408;16.826;2023-01-24T11:21:06;103294.52;;;5.80;72.46
26436;BME280;15351;52.408;16.826;2023-01-24T11:23:32;103295.52;;;5.85;72.33
26436;BME280;15351;52.408;16.826;2023-01-24T11:26:01;103289.70;;;5.90;72.17
26436;BME280;15351;52.408;16.826;2023-01-24T11:28:31;103290.52;;;5.95;71.86
26436;BME280;15351;52.408;16.826;2023-01-24T11:31:25;103292.11;;;5.95;71.92
26436;BME280;15351;52.408;16.826;2023-01-24T11:41:58;103286.84;;;6.03;71.46
26436;BME280;15351;52.408;16.826;2023-01-24T11:47:18;103281.07;;;6.01;71.38
26436;BME280;15351;52.408;16.826;2023-01-24T11:50:13;103273.90;;;5.98;71.23
26436;BME280;15351;52.408;16.826;2023-01-24T11:55:55;103274.24;;;5.89;71.02
26436;BME280;15351;52.408;16.826;2023-01-24T11:58:39;103276.12;;;5.84;71.10
26436;BME280;15351;52.408;16.826;2023-01-24T12:01:30;103272.27;;;5.79;71.57
26436;BME280;15351;52.408;16.826;2023-01-24T12:07:25;103266.84;;;5.83;71.22
26436;BME280;15351;52.408;16.826;2023-01-24T12:10:03;103259.74;;;5.83;71.15
26436;BME280;15351;52.408;16.826;2023-01-24T12:12:44;103258.58;;;5.78;71.29
26436;BME280;15351;52.408;16.826;2023-01-24T12:18:18;103251.71;;;5.72;71.70
26436;BME280;15351;52.408;16.826;2023-01-24T12:21:05;103246.28;;;5.74;71.60
26436;BME280;15351;52.408;16.826;2023-01-24T12:23:54;103244.77;;;5.75;71.40
26436;BME280;15351;52.408;16.826;2023-01-24T12:26:28;103245.52;;;5.75;71.73
26436;BME280;15351;52.408;16.826;2023-01-24T12:37:12;103227.52;;;5.94;71.18
26436;BME280;15351;52.408;16.826;2023-01-24T12:39:50;103225.00;;;5.95;71.24
26436;BME280;15351;52.408;16.826;2023-01-24T12:42:21;103225.05;;;5.90;71.18
26436;BME280;15351;52.408;16.826;2023-01-24T12:44:59;103225.39;;;5.87;71.41
26436;BME280;15351;52.408;16.826;2023-01-24T12:47:48;103218.80;;;5.87;71.24
26436;BME280;15351;52.408;16.826;2023-01-24T12:50:36;103220.39;;;5.87;71.22
26436;BME280;15351;52.408;16.826;2023-01-24T12:53:24;103231.63;;;5.84;71.29
26436;BME280;15351;52.408;16.826;2023-01-24T12:56:14;103241.52;;;5.80;71.51
26436;BME280;15351;52.408;16.826;2023-01-24T12:58:47;103252.90;;;5.81;71.71
26436;BME280;15351;52.408;16.826;2023-01-24T13:04:21;103256.19;;;5.79;71.64
26436;BME280;15351;52.408;16.826;2023-01-24T13:10:13;103255.61;;;5.73;71.63
26436;BME280;15351;52.408;16.826;2023-01-24T13:12:42;103252.20;;;5.73;71.40
26436;BME280;15351;52.408;16.826;2023-01-24T13:23:54;103247.14;;;5.63;71.73
26436;BME280;15351;52.408;16.826;2023-01-24T13:32:04;103247.48;;;5.60;71.70
26436;BME280;15351;52.408;16.826;2023-01-24T13:34:38;103247.39;;;5.62;71.84
26436;BME280;15351;52.408;16.826;2023-01-24T13:37:16;103245.65;;;5.61;71.89
26436;BME280;15351;52.408;16.826;2023-01-24T13:39:47;103248.71;;;5.60;71.55
26436;BME280;15351;52.408;16.826;2023-01-24T13:42:23;103245.42;;;5.58;71.49
26436;BME280;15351;52.408;16.826;2023-01-24T13:44:50;103249.77;;;5.54;71.48
26436;BME280;15351;52.408;16.826;2023-01-24T13:53:58;103245.95;;;5.49;71.61
26436;BME280;15351;52.408;16.826;2023-01-24T13:56:34;103240.11;;;5.48;71.69
26436;BME280;15351;52.408;16.826;2023-01-24T13:59:43;103239.08;;;5.43;71.88
26436;BME280;15351;52.408;16.826;2023-01-24T14:03:16;103240.83;;;5.41;72.16
26436;BME280;15351;52.408;16.826;2023-01-24T14:06:22;103234.30;;;5.39;72.18
26436;BME280;15351;52.408;16.826;2023-01-24T14:09:13;103237.08;;;5.37;72.40
26436;BME280;15351;52.408;16.826;2023-01-24T14:12:10;103232.64;;;5.37;72.44
26436;BME280;15351;52.408;16.826;2023-01-24T14:32:50;103226.02;;;5.34;72.55
26436;BME280;15351;52.408;16.826;2023-01-24T14:35:23;103229.40;;;5.34;72.72
26436;BME280;15351;52.408;16.826;2023-01-24T14:38:15;103224.11;;;5.33;72.72
26436;BME280;15351;52.408;16.826;2023-01-24T14:40:45;103221.85;;;5.31;72.81
26436;BME280;15351;52.408;16.826;2023-01-24T14:43:15;103222.56;;;5.31;72.75
26436;BME280;15351;52.408;16.826;2023-01-24T14:45:42;103217.73;;;5.32;72.53
26436;BME280;15351;52.408;16.826;2023-01-24T14:48:10;103218.70;;;5.30;72.63
26436;BME280;15351;52.408;16.826;2023-01-24T14:50:40;103222.23;;;5.27;72.68
26436;BME280;15351;52.408;16.826;2023-01-24T14:53:26;103218.15;;;5.24;72.81
26436;BME280;15351;52.408;16.826;2023-01-24T14:56:15;103216.22;;;5.23;72.71
26436;BME280;15351;52.408;16.826;2023-01-24T14:58:45;103209.02;;;5.24;72.48
26436;BME280;15351;52.408;16.826;2023-01-24T15:01:29;103209.09;;;5.19;72.54
26436;BME280;15351;52.408;16.826;2023-01-24T15:04:03;103214.61;;;5.16;72.63